FDX3 TNCC-SVSZ
Flight info
| Callsign | FDX3 |
|---|---|
| Flight time | N/A |
| Altitude | 38000 |
| Route | EMAPA1K EMAPA DCT STB |
| Aircraft | B738/M-SDE2E3FGHIRWXY/LB1 |
Departure
| Time | 2026-04-14 22:45 |
|---|---|
| Airport | Hato International Airport (TNCC) |
Arrival
| Time | N/A |
|---|---|
| Airport | Miguel Urdaneta Fernández Airport (SVSZ) |
| Time | Latitude | Longitude | Altitude | Speed | Heading |
|---|---|---|---|---|---|
| 2026-04-14 22:24 | 12.18780 | -68.96802 | 26 ft | 0 kts | 190° |
| 2026-04-14 22:37 | 12.18788 | -68.96801 | 32 ft | 3 kts | 188° |
| 2026-04-14 22:37 | 12.18808 | -68.96799 | 28 ft | 3 kts | 187° |
| 2026-04-14 22:37 | 12.18827 | -68.96794 | 32 ft | 3 kts | 208° |
| 2026-04-14 22:38 | 12.18845 | -68.96785 | 29 ft | 3 kts | 207° |
| 2026-04-14 22:38 | 12.18857 | -68.96778 | 31 ft | 3 kts | 211° |
| 2026-04-14 22:38 | 12.18868 | -68.96771 | 29 ft | 1 kts | 217° |
| 2026-04-14 22:38 | 12.18869 | -68.96770 | 29 ft | 0 kts | 217° |
| 2026-04-14 22:40 | 12.18866 | -68.96772 | 26 ft | 1 kts | 217° |
| 2026-04-14 22:40 | 12.18860 | -68.96782 | 30 ft | 2 kts | 250° |
| 2026-04-14 22:41 | 12.18863 | -68.96803 | 27 ft | 6 kts | 289° |
| 2026-04-14 22:41 | 12.18888 | -68.96863 | 28 ft | 11 kts | 297° |
| 2026-04-14 22:41 | 12.18913 | -68.96956 | 29 ft | 12 kts | 280° |
| 2026-04-14 22:41 | 12.18931 | -68.97045 | 27 ft | 13 kts | 283° |
| 2026-04-14 22:42 | 12.18956 | -68.97153 | 30 ft | 18 kts | 283° |
| 2026-04-14 22:42 | 12.18982 | -68.97277 | 25 ft | 17 kts | 282° |
| 2026-04-14 22:42 | 12.19007 | -68.97395 | 25 ft | 17 kts | 282° |
| 2026-04-14 22:42 | 12.19031 | -68.97510 | 26 ft | 16 kts | 282° |
| 2026-04-14 22:43 | 12.19053 | -68.97609 | 25 ft | 7 kts | 283° |
| 2026-04-14 22:43 | 12.19083 | -68.97647 | 30 ft | 7 kts | 338° |
| 2026-04-14 22:43 | 12.19136 | -68.97642 | 26 ft | 8 kts | 11° |
| 2026-04-14 22:43 | 12.19193 | -68.97619 | 26 ft | 9 kts | 42° |
| 2026-04-14 22:44 | 12.19219 | -68.97556 | 27 ft | 10 kts | 81° |
| 2026-04-14 22:44 | 12.19212 | -68.97489 | 29 ft | 8 kts | 102° |
| 2026-04-14 22:44 | 12.19198 | -68.97419 | 30 ft | 17 kts | 101° |
| 2026-04-14 22:44 | 12.19112 | -68.97007 | 26 ft | 109 kts | 102° |
| 2026-04-14 22:45 | 12.18904 | -68.96000 | 430 ft | 159 kts | 100° |
| 2026-04-14 22:45 | 12.18694 | -68.94954 | 1854 ft | 143 kts | 99° |
| 2026-04-14 22:45 | 12.18497 | -68.93976 | 3146 ft | 138 kts | 101° |
| 2026-04-14 22:45 | 12.18279 | -68.92947 | 4050 ft | 160 kts | 101° |
| 2026-04-14 22:46 | 12.18035 | -68.91758 | 4872 ft | 184 kts | 102° |
| 2026-04-14 22:46 | 12.17741 | -68.90438 | 5905 ft | 196 kts | 103° |
| 2026-04-14 22:46 | 12.17313 | -68.89061 | 6708 ft | 216 kts | 121° |
| 2026-04-14 22:46 | 12.16120 | -68.87962 | 6963 ft | 255 kts | 159° |
| 2026-04-14 22:47 | 12.14263 | -68.87792 | 7479 ft | 282 kts | 193° |
| 2026-04-14 22:47 | 12.12500 | -68.88649 | 8687 ft | 283 kts | 220° |
| 2026-04-14 22:47 | 12.11321 | -68.90230 | 9964 ft | 284 kts | 242° |
| 2026-04-14 22:47 | 12.10468 | -68.92006 | 11241 ft | 279 kts | 245° |
| 2026-04-14 22:48 | 12.09626 | -68.93879 | 11987 ft | 300 kts | 245° |
| 2026-04-14 22:48 | 12.08690 | -68.95914 | 12393 ft | 327 kts | 245° |
| 2026-04-14 22:48 | 12.07676 | -68.98034 | 13308 ft | 334 kts | 244° |
| 2026-04-14 22:48 | 12.06631 | -69.00154 | 14353 ft | 334 kts | 244° |
| 2026-04-14 22:49 | 12.05568 | -69.02265 | 15366 ft | 335 kts | 243° |
| 2026-04-14 22:49 | 12.04502 | -69.04358 | 16335 ft | 336 kts | 243° |
| 2026-04-14 22:49 | 12.03399 | -69.06508 | 17303 ft | 339 kts | 244° |
| 2026-04-14 22:49 | 12.02311 | -69.08622 | 18216 ft | 341 kts | 244° |
| 2026-04-14 22:50 | 12.01196 | -69.10786 | 18912 ft | 347 kts | 244° |
| 2026-04-14 22:50 | 12.00056 | -69.12997 | 19503 ft | 356 kts | 244° |
| 2026-04-14 22:50 | 11.98893 | -69.15253 | 20126 ft | 362 kts | 244° |
| 2026-04-14 22:50 | 11.97707 | -69.17550 | 20762 ft | 368 kts | 244° |
| 2026-04-14 22:51 | 11.96500 | -69.19889 | 21375 ft | 375 kts | 244° |
| 2026-04-14 22:51 | 11.95236 | -69.22246 | 21906 ft | 384 kts | 239° |
| 2026-04-14 22:51 | 11.93439 | -69.24313 | 22481 ft | 394 kts | 225° |
| 2026-04-14 22:51 | 11.91386 | -69.26192 | 23060 ft | 400 kts | 224° |
| 2026-04-14 22:52 | 11.89291 | -69.28090 | 23576 ft | 406 kts | 224° |
| 2026-04-14 22:52 | 11.87170 | -69.30013 | 24059 ft | 409 kts | 225° |
| 2026-04-14 22:52 | 11.85041 | -69.31952 | 24619 ft | 411 kts | 225° |
| 2026-04-14 22:52 | 11.82911 | -69.33903 | 25170 ft | 412 kts | 225° |
| 2026-04-14 22:53 | 11.80776 | -69.35867 | 25688 ft | 415 kts | 225° |
| 2026-04-14 22:53 | 11.78626 | -69.37850 | 26181 ft | 418 kts | 225° |
| 2026-04-14 22:53 | 11.76461 | -69.39851 | 26671 ft | 421 kts | 225° |
| 2026-04-14 22:53 | 11.74286 | -69.41862 | 27156 ft | 423 kts | 226° |
| 2026-04-14 22:54 | 11.72093 | -69.43890 | 27641 ft | 426 kts | 226° |
| 2026-04-14 22:54 | 11.69910 | -69.45909 | 28103 ft | 429 kts | 226° |
| 2026-04-14 22:54 | 11.67694 | -69.47958 | 28561 ft | 431 kts | 226° |
| 2026-04-14 22:54 | 11.65462 | -69.50021 | 29006 ft | 434 kts | 226° |
| 2026-04-14 22:55 | 11.63213 | -69.52099 | 29401 ft | 438 kts | 225° |
| 2026-04-14 22:55 | 11.60936 | -69.54203 | 29753 ft | 442 kts | 226° |
| 2026-04-14 22:55 | 11.58651 | -69.56313 | 30135 ft | 444 kts | 226° |
| 2026-04-14 22:55 | 11.56353 | -69.58434 | 30550 ft | 445 kts | 225° |
| 2026-04-14 22:56 | 11.54059 | -69.60550 | 30955 ft | 445 kts | 225° |
| 2026-04-14 22:56 | 11.51784 | -69.62648 | 31342 ft | 446 kts | 225° |
| 2026-04-14 22:56 | 11.49481 | -69.64772 | 31782 ft | 446 kts | 225° |
| 2026-04-14 22:56 | 11.47184 | -69.66888 | 32344 ft | 442 kts | 225° |
| 2026-04-14 22:57 | 11.44910 | -69.68984 | 32984 ft | 437 kts | 225° |
| 2026-04-14 22:57 | 11.42664 | -69.71053 | 33628 ft | 433 kts | 225° |
| 2026-04-14 22:57 | 11.40436 | -69.73106 | 34172 ft | 430 kts | 225° |
| 2026-04-14 22:57 | 11.38218 | -69.75150 | 34630 ft | 429 kts | 225° |
| 2026-04-14 22:58 | 11.36011 | -69.77184 | 35064 ft | 428 kts | 225° |
| 2026-04-14 22:58 | 11.33806 | -69.79216 | 35524 ft | 426 kts | 225° |
| 2026-04-14 22:58 | 11.31609 | -69.81239 | 36009 ft | 424 kts | 225° |
| 2026-04-14 22:58 | 11.29453 | -69.83225 | 36456 ft | 422 kts | 225° |
| 2026-04-14 22:59 | 11.27278 | -69.85228 | 36914 ft | 421 kts | 225° |
| 2026-04-14 22:59 | 11.25108 | -69.87224 | 37367 ft | 419 kts | 225° |
| 2026-04-14 22:59 | 11.22951 | -69.89209 | 37783 ft | 418 kts | 225° |
| 2026-04-14 23:00 | 11.18580 | -69.93233 | 37885 ft | 426 kts | 225° |
| 2026-04-14 23:00 | 11.14214 | -69.97246 | 37867 ft | 418 kts | 225° |
| 2026-04-14 23:01 | 11.10644 | -70.00526 | 37885 ft | 416 kts | 225° |
| 2026-04-14 23:01 | 11.10475 | -70.00680 | 37883 ft | 416 kts | 225° |